This is the latest recevied weather packets stored in our database for station/object OK2ILA-10. If no packets are shown the sender has not sent any weather packets the latest 10 day(s).
| Time | Temp. | Humidity | Pressure | Rain* | Wind** | Luminosity | Snow |
|---|---|---|---|---|---|---|---|
| 1788504714 | 20° C | 62% | 1019.2 hPa | - | - | - | - |
| 1788504126 | 22.22° C | 57% | 1019 hPa | - | - | - | - |
| 1788504114 | 22.22° C | 57% | 1019 hPa | - | - | - | - |
| 1788503519 | 19.44° C | 65% | 1019.1 hPa | - | - | - | - |
| 1788503513 | 19.44° C | 65% | 1019.1 hPa | - | - | - | - |
| 1788502919 | 18.89° C | 68% | 1019.1 hPa | - | - | - | - |
| 1788502913 | 18.89° C | 68% | 1019.1 hPa | - | - | - | - |
| 1788502326 | 17.78° C | 70% | 1018.9 hPa | - | - | - | - |
| 1788502313 | 17.78° C | 70% | 1018.9 hPa | - | - | - | - |
| 1788501737 | 17.22° C | 71% | 1019.1 hPa | - | - | - | - |
| 1788501113 | 16.67° C | 72% | 1018.8 hPa | - | - | - | - |
| 1788500512 | 16.67° C | 72% | 1018.9 hPa | - | - | - | - |
| 1788499912 | 16.67° C | 72% | 1018.9 hPa | - | - | - | - |
| 1788499326 | 16.67° C | 72% | 1018.8 hPa | - | - | - | - |
| 1788499312 | 16.67° C | 72% | 1018.8 hPa | - | - | - | - |
| 1788498711 | 16.67° C | 73% | 1018.7 hPa | - | - | - | - |
| 1788498141 | 16.67° C | 72% | 1018.6 hPa | - | - | - | - |
| 1788497541 | 16.67° C | 72% | 1018.7 hPa | - | - | - | - |
| 1788496940 | 16.67° C | 72% | 1018.8 hPa | - | - | - | - |
| 1788496340 | 16.67° C | 72% | 1018.9 hPa | - | - | - | - |
| 1788495746 | 16.11° C | 72% | 1018.9 hPa | - | - | - | - |
| 1788495740 | 16.11° C | 72% | 1018.9 hPa | - | - | - | - |
| 1788495140 | 16.11° C | 72% | 1018.7 hPa | - | - | - | - |
| 1788494547 | 16.11° C | 72% | 1018.9 hPa | - | - | - | - |
| 1788494539 | 16.11° C | 72% | 1018.9 hPa | - | - | - | - |
* Rain since midnight (hover to see other rain measurements)
** Current wind speed in m/s (hover to see current wind gust speed)